Terminal Aerodrome Forecast
Issued by NWS Jackson, KY

Home | Current Version | Previous Version | Text Only | Print | Product List | Glossary On
Versions: 1 2 3 4 5 6 7 8 9 10 11 12 13 14 15 16 17 18
673
FTUS43 KJKL 271750
TAFLOZ
TAF
KLOZ 271750Z 2718/2818 22008KT P6SM VCTS SCT030CB BKN060
     FM280000 19006KT 5SM -SHRA BR VCTS SCT025 BKN080CB BKN120
     FM280800 21005KT 5SM -SHRA BR SCT010 OVC025
     FM281000 21005KT 5SM -SHRA BR SCT003 OVC015
     FM281200 21004KT 6SM -SHRA BR SCT003 OVC008=

USA.gov is the U.S. government's official web portal to all federal, state and local government web resources and services.